Omaha/Offutt AFB, Nebraska
Current Conditions -  °F | °C
As of 11:58 AM on Sunday 25 Jan 2015 (Local Time) from KOFF Reporting Station
Overcast Overcast  
Wind Chill: 32°   Ceiling: 1500
Heat Index: 38°   Visibility: 10mi
Dew Point: 32°   Wind: 8mph
Humidity: 79%   Direction: 360°N
Pressure: 29.95"   Gusts: 20mph
Location:  41.12°N, 95.92°W
Report Text: KOFF 251758Z AUTO 36007G17KT 10SM OVC015 04/00 A2995 RMK AO2 SLP152 60000 T00350001 10035 20021 52035 $
Loading
Personal Weather Stations






























Interactive Weather Map New forecast layout! Learn more

10-Day Weather Forecast

Advertisements
Track Severe Weather on mobile